sensor_id;sensor_type;location;lat;lon;timestamp;P1;durP1;ratioP1;P2;durP2;ratioP2
59972;SDS011;55298;-36.624;-64.282;2022-08-26T00:00:11;23.02;;;7.00;;
59972;SDS011;55298;-36.624;-64.282;2022-08-26T00:02:39;26.67;;;8.93;;
59972;SDS011;55298;-36.624;-64.282;2022-08-26T00:05:09;28.15;;;9.05;;
59972;SDS011;55298;-36.624;-64.282;2022-08-26T00:07:37;25.60;;;9.65;;
59972;SDS011;55298;-36.624;-64.282;2022-08-26T00:10:07;33.58;;;9.82;;
59972;SDS011;55298;-36.624;-64.282;2022-08-26T00:12:38;32.20;;;11.30;;
59972;SDS011;55298;-36.624;-64.282;2022-08-26T00:15:08;23.55;;;11.18;;
59972;SDS011;55298;-36.624;-64.282;2022-08-26T00:17:37;23.98;;;9.27;;
59972;SDS011;55298;-36.624;-64.282;2022-08-26T00:20:05;19.35;;;8.45;;
59972;SDS011;55298;-36.624;-64.282;2022-08-26T00:22:35;15.30;;;7.47;;
59972;SDS011;55298;-36.624;-64.282;2022-08-26T00:25:03;22.33;;;8.55;;
59972;SDS011;55298;-36.624;-64.282;2022-08-26T00:27:33;23.73;;;8.07;;
59972;SDS011;55298;-36.624;-64.282;2022-08-26T00:30:03;30.05;;;9.10;;
59972;SDS011;55298;-36.624;-64.282;2022-08-26T00:32:34;26.23;;;8.60;;
59972;SDS011;55298;-36.624;-64.282;2022-08-26T00:35:02;18.35;;;6.88;;
59972;SDS011;55298;-36.624;-64.282;2022-08-26T00:37:33;20.40;;;6.10;;
59972;SDS011;55298;-36.624;-64.282;2022-08-26T00:40:03;20.88;;;7.10;;
59972;SDS011;55298;-36.624;-64.282;2022-08-26T00:42:33;23.38;;;6.93;;
59972;SDS011;55298;-36.624;-64.282;2022-08-26T00:45:02;26.30;;;8.95;;
59972;SDS011;55298;-36.624;-64.282;2022-08-26T00:47:32;28.38;;;8.55;;
59972;SDS011;55298;-36.624;-64.282;2022-08-26T00:50:06;26.92;;;9.07;;
59972;SDS011;55298;-36.624;-64.282;2022-08-26T00:52:38;25.30;;;9.50;;
59972;SDS011;55298;-36.624;-64.282;2022-08-26T00:55:12;18.17;;;8.88;;
59972;SDS011;55298;-36.624;-64.282;2022-08-26T00:57:47;23.63;;;9.70;;
59972;SDS011;55298;-36.624;-64.282;2022-08-26T01:00:19;23.40;;;9.80;;
59972;SDS011;55298;-36.624;-64.282;2022-08-26T01:02:53;31.60;;;10.77;;
59972;SDS011;55298;-36.624;-64.282;2022-08-26T01:05:23;27.42;;;12.23;;
59972;SDS011;55298;-36.624;-64.282;2022-08-26T01:07:52;26.92;;;10.88;;
59972;SDS011;55298;-36.624;-64.282;2022-08-26T01:10:20;30.42;;;11.75;;
59972;SDS011;55298;-36.624;-64.282;2022-08-26T01:12:55;30.98;;;12.65;;
59972;SDS011;55298;-36.624;-64.282;2022-08-26T01:15:31;25.25;;;11.35;;
59972;SDS011;55298;-36.624;-64.282;2022-08-26T01:18:04;24.80;;;9.65;;
59972;SDS011;55298;-36.624;-64.282;2022-08-26T01:23:20;27.65;;;12.32;;
59972;SDS011;55298;-36.624;-64.282;2022-08-26T01:25:52;23.88;;;10.98;;
59972;SDS011;55298;-36.624;-64.282;2022-08-26T01:28:24;27.00;;;9.80;;
59972;SDS011;55298;-36.624;-64.282;2022-08-26T01:30:55;25.73;;;11.23;;
59972;SDS011;55298;-36.624;-64.282;2022-08-26T01:33:36;32.20;;;11.15;;
59972;SDS011;55298;-36.624;-64.282;2022-08-26T01:36:26;32.38;;;13.10;;
59972;SDS011;55298;-36.624;-64.282;2022-08-26T01:38:55;32.30;;;12.15;;
59972;SDS011;55298;-36.624;-64.282;2022-08-26T01:41:23;21.25;;;11.48;;
59972;SDS011;55298;-36.624;-64.282;2022-08-26T01:43:52;30.00;;;12.20;;
59972;SDS011;55298;-36.624;-64.282;2022-08-26T01:46:23;23.40;;;10.18;;
59972;SDS011;55298;-36.624;-64.282;2022-08-26T01:48:53;21.63;;;9.90;;
59972;SDS011;55298;-36.624;-64.282;2022-08-26T01:51:26;37.83;;;11.60;;
59972;SDS011;55298;-36.624;-64.282;2022-08-26T01:53:56;35.15;;;11.85;;
59972;SDS011;55298;-36.624;-64.282;2022-08-26T01:56:25;37.70;;;10.38;;
59972;SDS011;55298;-36.624;-64.282;2022-08-26T01:58:55;29.63;;;10.18;;
59972;SDS011;55298;-36.624;-64.282;2022-08-26T02:01:27;46.42;;;14.05;;
59972;SDS011;55298;-36.624;-64.282;2022-08-26T02:03:58;36.00;;;12.25;;
59972;SDS011;55298;-36.624;-64.282;2022-08-26T02:06:48;37.78;;;12.95;;
59972;SDS011;55298;-36.624;-64.282;2022-08-26T02:09:16;21.08;;;9.30;;
59972;SDS011;55298;-36.624;-64.282;2022-08-26T02:11:46;24.92;;;9.68;;
59972;SDS011;55298;-36.624;-64.282;2022-08-26T02:14:16;26.30;;;9.57;;
59972;SDS011;55298;-36.624;-64.282;2022-08-26T02:16:49;23.33;;;9.85;;
59972;SDS011;55298;-36.624;-64.282;2022-08-26T02:19:30;23.90;;;9.38;;
59972;SDS011;55298;-36.624;-64.282;2022-08-26T02:22:01;32.92;;;9.70;;
59972;SDS011;55298;-36.624;-64.282;2022-08-26T02:27:22;21.60;;;8.52;;
59972;SDS011;55298;-36.624;-64.282;2022-08-26T02:29:57;27.30;;;11.30;;
59972;SDS011;55298;-36.624;-64.282;2022-08-26T02:32:42;31.60;;;11.07;;
59972;SDS011;55298;-36.624;-64.282;2022-08-26T02:35:14;33.85;;;10.75;;
59972;SDS011;55298;-36.624;-64.282;2022-08-26T02:37:46;25.20;;;10.45;;
59972;SDS011;55298;-36.624;-64.282;2022-08-26T02:40:16;26.67;;;10.70;;
59972;SDS011;55298;-36.624;-64.282;2022-08-26T02:42:48;40.50;;;12.82;;
59972;SDS011;55298;-36.624;-64.282;2022-08-26T02:45:17;45.80;;;14.93;;
59972;SDS011;55298;-36.624;-64.282;2022-08-26T02:47:46;38.05;;;13.27;;
59972;SDS011;55298;-36.624;-64.282;2022-08-26T02:50:14;50.55;;;16.90;;
59972;SDS011;55298;-36.624;-64.282;2022-08-26T02:52:50;41.67;;;15.40;;
59972;SDS011;55298;-36.624;-64.282;2022-08-26T02:55:18;36.72;;;15.10;;
59972;SDS011;55298;-36.624;-64.282;2022-08-26T02:57:47;40.78;;;14.70;;
59972;SDS011;55298;-36.624;-64.282;2022-08-26T03:00:16;57.33;;;20.90;;
59972;SDS011;55298;-36.624;-64.282;2022-08-26T03:02:45;37.20;;;14.60;;
59972;SDS011;55298;-36.624;-64.282;2022-08-26T03:05:13;38.53;;;15.60;;
59972;SDS011;55298;-36.624;-64.282;2022-08-26T03:07:44;50.47;;;14.75;;
59972;SDS011;55298;-36.624;-64.282;2022-08-26T03:10:12;39.85;;;14.48;;
59972;SDS011;55298;-36.624;-64.282;2022-08-26T03:12:42;30.50;;;14.48;;
59972;SDS011;55298;-36.624;-64.282;2022-08-26T03:15:11;30.15;;;12.75;;
59972;SDS011;55298;-36.624;-64.282;2022-08-26T03:17:42;52.15;;;13.80;;
59972;SDS011;55298;-36.624;-64.282;2022-08-26T03:20:13;42.22;;;12.82;;
59972;SDS011;55298;-36.624;-64.282;2022-08-26T03:22:43;29.92;;;12.07;;
59972;SDS011;55298;-36.624;-64.282;2022-08-26T03:25:13;40.45;;;13.25;;
59972;SDS011;55298;-36.624;-64.282;2022-08-26T03:27:43;39.42;;;13.48;;
59972;SDS011;55298;-36.624;-64.282;2022-08-26T03:30:11;34.33;;;11.77;;
59972;SDS011;55298;-36.624;-64.282;2022-08-26T03:32:51;42.00;;;13.10;;
59972;SDS011;55298;-36.624;-64.282;2022-08-26T03:35:28;31.23;;;12.38;;
59972;SDS011;55298;-36.624;-64.282;2022-08-26T03:37:56;36.50;;;14.02;;
59972;SDS011;55298;-36.624;-64.282;2022-08-26T03:40:28;36.95;;;14.95;;
59972;SDS011;55298;-36.624;-64.282;2022-08-26T03:42:59;41.45;;;13.35;;
59972;SDS011;55298;-36.624;-64.282;2022-08-26T03:45:31;37.50;;;13.55;;
59972;SDS011;55298;-36.624;-64.282;2022-08-26T03:47:59;60.45;;;17.05;;
59972;SDS011;55298;-36.624;-64.282;2022-08-26T03:50:29;55.45;;;17.95;;
59972;SDS011;55298;-36.624;-64.282;2022-08-26T03:52:57;39.20;;;15.70;;
59972;SDS011;55298;-36.624;-64.282;2022-08-26T03:55:29;50.63;;;15.02;;
59972;SDS011;55298;-36.624;-64.282;2022-08-26T03:58:02;49.00;;;15.10;;
59972;SDS011;55298;-36.624;-64.282;2022-08-26T04:00:31;42.22;;;13.93;;
59972;SDS011;55298;-36.624;-64.282;2022-08-26T04:02:58;49.85;;;14.38;;
59972;SDS011;55298;-36.624;-64.282;2022-08-26T04:05:27;32.15;;;10.98;;
59972;SDS011;55298;-36.624;-64.282;2022-08-26T04:07:55;29.75;;;11.43;;
59972;SDS011;55298;-36.624;-64.282;2022-08-26T04:10:25;42.70;;;13.88;;
59972;SDS011;55298;-36.624;-64.282;2022-08-26T04:12:52;39.75;;;14.85;;
59972;SDS011;55298;-36.624;-64.282;2022-08-26T04:15:20;36.85;;;15.57;;
59972;SDS011;55298;-36.624;-64.282;2022-08-26T04:17:49;32.80;;;14.70;;
59972;SDS011;55298;-36.624;-64.282;2022-08-26T04:20:21;27.80;;;13.80;;
59972;SDS011;55298;-36.624;-64.282;2022-08-26T04:22:49;35.25;;;13.80;;
59972;SDS011;55298;-36.624;-64.282;2022-08-26T04:25:19;33.25;;;14.10;;
59972;SDS011;55298;-36.624;-64.282;2022-08-26T04:27:49;32.33;;;15.63;;
59972;SDS011;55298;-36.624;-64.282;2022-08-26T04:30:18;34.38;;;14.65;;
59972;SDS011;55298;-36.624;-64.282;2022-08-26T04:32:46;28.60;;;14.43;;
59972;SDS011;55298;-36.624;-64.282;2022-08-26T04:35:16;31.48;;;13.40;;
59972;SDS011;55298;-36.624;-64.282;2022-08-26T04:37:44;28.73;;;12.90;;
59972;SDS011;55298;-36.624;-64.282;2022-08-26T04:40:13;23.83;;;12.52;;
59972;SDS011;55298;-36.624;-64.282;2022-08-26T04:42:41;27.98;;;13.45;;
59972;SDS011;55298;-36.624;-64.282;2022-08-26T04:45:10;30.55;;;12.07;;
59972;SDS011;55298;-36.624;-64.282;2022-08-26T04:47:40;30.52;;;12.82;;
59972;SDS011;55298;-36.624;-64.282;2022-08-26T04:50:09;31.95;;;12.80;;
59972;SDS011;55298;-36.624;-64.282;2022-08-26T04:52:37;36.33;;;13.02;;
59972;SDS011;55298;-36.624;-64.282;2022-08-26T04:55:07;36.85;;;14.07;;
59972;SDS011;55298;-36.624;-64.282;2022-08-26T04:57:36;34.85;;;14.18;;
59972;SDS011;55298;-36.624;-64.282;2022-08-26T05:00:06;42.60;;;15.35;;
59972;SDS011;55298;-36.624;-64.282;2022-08-26T05:02:38;39.95;;;14.73;;
59972;SDS011;55298;-36.624;-64.282;2022-08-26T05:05:09;34.35;;;14.75;;
59972;SDS011;55298;-36.624;-64.282;2022-08-26T05:07:40;39.97;;;14.52;;
59972;SDS011;55298;-36.624;-64.282;2022-08-26T05:10:11;38.17;;;14.93;;
59972;SDS011;55298;-36.624;-64.282;2022-08-26T05:12:46;31.33;;;12.93;;
59972;SDS011;55298;-36.624;-64.282;2022-08-26T05:15:24;30.02;;;13.07;;
59972;SDS011;55298;-36.624;-64.282;2022-08-26T05:17:53;29.95;;;12.88;;
59972;SDS011;55298;-36.624;-64.282;2022-08-26T05:20:24;44.75;;;13.70;;
59972;SDS011;55298;-36.624;-64.282;2022-08-26T05:22:57;29.92;;;13.20;;
59972;SDS011;55298;-36.624;-64.282;2022-08-26T05:25:29;37.97;;;14.43;;
59972;SDS011;55298;-36.624;-64.282;2022-08-26T05:27:59;35.00;;;15.65;;
59972;SDS011;55298;-36.624;-64.282;2022-08-26T05:30:28;34.88;;;14.63;;
59972;SDS011;55298;-36.624;-64.282;2022-08-26T05:32:57;32.42;;;14.95;;
59972;SDS011;55298;-36.624;-64.282;2022-08-26T05:35:26;37.25;;;14.75;;
59972;SDS011;55298;-36.624;-64.282;2022-08-26T05:37:59;36.72;;;13.13;;
59972;SDS011;55298;-36.624;-64.282;2022-08-26T05:40:32;33.33;;;12.95;;
59972;SDS011;55298;-36.624;-64.282;2022-08-26T05:43:03;32.25;;;13.38;;
59972;SDS011;55298;-36.624;-64.282;2022-08-26T05:45:35;36.10;;;13.55;;
59972;SDS011;55298;-36.624;-64.282;2022-08-26T05:48:04;30.90;;;12.60;;
59972;SDS011;55298;-36.624;-64.282;2022-08-26T05:50:36;24.15;;;11.50;;
59972;SDS011;55298;-36.624;-64.282;2022-08-26T05:53:07;27.95;;;11.95;;
59972;SDS011;55298;-36.624;-64.282;2022-08-26T05:55:41;26.50;;;11.65;;
59972;SDS011;55298;-36.624;-64.282;2022-08-26T05:58:11;27.92;;;12.38;;
59972;SDS011;55298;-36.624;-64.282;2022-08-26T06:00:40;33.47;;;13.35;;
59972;SDS011;55298;-36.624;-64.282;2022-08-26T06:03:09;22.65;;;11.38;;
59972;SDS011;55298;-36.624;-64.282;2022-08-26T06:05:38;27.33;;;11.85;;
59972;SDS011;55298;-36.624;-64.282;2022-08-26T06:08:08;33.63;;;12.95;;
59972;SDS011;55298;-36.624;-64.282;2022-08-26T06:10:54;30.48;;;12.63;;
59972;SDS011;55298;-36.624;-64.282;2022-08-26T06:13:26;30.15;;;12.52;;
59972;SDS011;55298;-36.624;-64.282;2022-08-26T06:15:58;24.85;;;11.40;;
59972;SDS011;55298;-36.624;-64.282;2022-08-26T06:18:30;26.13;;;11.63;;
59972;SDS011;55298;-36.624;-64.282;2022-08-26T06:21:18;26.73;;;11.32;;
59972;SDS011;55298;-36.624;-64.282;2022-08-26T06:23:49;24.63;;;12.40;;
59972;SDS011;55298;-36.624;-64.282;2022-08-26T06:26:29;33.47;;;12.20;;
59972;SDS011;55298;-36.624;-64.282;2022-08-26T06:28:58;30.75;;;12.30;;
59972;SDS011;55298;-36.624;-64.282;2022-08-26T06:31:27;31.85;;;11.30;;
59972;SDS011;55298;-36.624;-64.282;2022-08-26T06:33:56;24.25;;;11.43;;
59972;SDS011;55298;-36.624;-64.282;2022-08-26T06:36:26;32.65;;;11.13;;
59972;SDS011;55298;-36.624;-64.282;2022-08-26T06:38:58;21.08;;;10.68;;
59972;SDS011;55298;-36.624;-64.282;2022-08-26T06:41:30;28.80;;;10.88;;
59972;SDS011;55298;-36.624;-64.282;2022-08-26T06:43:59;30.70;;;10.68;;
59972;SDS011;55298;-36.624;-64.282;2022-08-26T06:46:28;22.55;;;9.98;;
59972;SDS011;55298;-36.624;-64.282;2022-08-26T06:48:56;22.83;;;10.65;;
59972;SDS011;55298;-36.624;-64.282;2022-08-26T06:51:26;24.42;;;9.95;;
59972;SDS011;55298;-36.624;-64.282;2022-08-26T06:53:57;19.95;;;9.20;;
59972;SDS011;55298;-36.624;-64.282;2022-08-26T06:56:28;21.25;;;9.70;;
59972;SDS011;55298;-36.624;-64.282;2022-08-26T06:59:02;17.08;;;9.77;;
59972;SDS011;55298;-36.624;-64.282;2022-08-26T07:01:32;23.02;;;10.43;;
59972;SDS011;55298;-36.624;-64.282;2022-08-26T07:04:03;20.17;;;8.52;;
59972;SDS011;55298;-36.624;-64.282;2022-08-26T07:06:34;17.38;;;8.77;;
59972;SDS011;55298;-36.624;-64.282;2022-08-26T07:09:05;16.15;;;7.88;;
59972;SDS011;55298;-36.624;-64.282;2022-08-26T07:11:37;15.85;;;7.70;;
59972;SDS011;55298;-36.624;-64.282;2022-08-26T07:14:05;14.13;;;6.70;;
59972;SDS011;55298;-36.624;-64.282;2022-08-26T07:16:34;14.15;;;6.97;;
59972;SDS011;55298;-36.624;-64.282;2022-08-26T07:19:03;14.50;;;7.28;;
59972;SDS011;55298;-36.624;-64.282;2022-08-26T07:21:31;21.10;;;8.35;;
59972;SDS011;55298;-36.624;-64.282;2022-08-26T07:23:58;31.38;;;8.90;;
59972;SDS011;55298;-36.624;-64.282;2022-08-26T07:26:27;25.52;;;8.18;;
59972;SDS011;55298;-36.624;-64.282;2022-08-26T07:28:56;17.42;;;6.85;;
59972;SDS011;55298;-36.624;-64.282;2022-08-26T07:31:26;15.05;;;6.97;;
59972;SDS011;55298;-36.624;-64.282;2022-08-26T07:33:57;20.77;;;7.68;;
59972;SDS011;55298;-36.624;-64.282;2022-08-26T07:36:29;12.57;;;6.20;;
59972;SDS011;55298;-36.624;-64.282;2022-08-26T07:38:58;12.90;;;7.03;;
59972;SDS011;55298;-36.624;-64.282;2022-08-26T07:41:25;12.63;;;7.03;;
59972;SDS011;55298;-36.624;-64.282;2022-08-26T07:43:55;12.85;;;6.15;;
59972;SDS011;55298;-36.624;-64.282;2022-08-26T07:46:22;10.63;;;6.47;;
59972;SDS011;55298;-36.624;-64.282;2022-08-26T07:48:51;15.27;;;7.05;;
59972;SDS011;55298;-36.624;-64.282;2022-08-26T07:51:19;12.93;;;5.93;;
59972;SDS011;55298;-36.624;-64.282;2022-08-26T07:53:48;9.30;;;5.63;;
59972;SDS011;55298;-36.624;-64.282;2022-08-26T07:56:16;13.90;;;5.90;;
59972;SDS011;55298;-36.624;-64.282;2022-08-26T07:58:46;11.48;;;6.03;;
59972;SDS011;55298;-36.624;-64.282;2022-08-26T08:01:14;12.52;;;5.53;;
59972;SDS011;55298;-36.624;-64.282;2022-08-26T08:03:43;12.90;;;5.50;;
59972;SDS011;55298;-36.624;-64.282;2022-08-26T08:06:17;9.55;;;5.57;;
59972;SDS011;55298;-36.624;-64.282;2022-08-26T08:08:49;10.85;;;5.63;;
59972;SDS011;55298;-36.624;-64.282;2022-08-26T08:11:18;11.23;;;5.40;;
59972;SDS011;55298;-36.624;-64.282;2022-08-26T08:13:47;10.38;;;5.47;;
59972;SDS011;55298;-36.624;-64.282;2022-08-26T08:16:17;10.93;;;5.28;;
59972;SDS011;55298;-36.624;-64.282;2022-08-26T08:18:46;10.85;;;5.68;;
59972;SDS011;55298;-36.624;-64.282;2022-08-26T08:21:15;8.18;;;4.95;;
59972;SDS011;55298;-36.624;-64.282;2022-08-26T08:23:43;9.25;;;5.28;;
59972;SDS011;55298;-36.624;-64.282;2022-08-26T08:26:12;11.13;;;5.70;;
59972;SDS011;55298;-36.624;-64.282;2022-08-26T08:28:39;8.40;;;5.30;;
59972;SDS011;55298;-36.624;-64.282;2022-08-26T08:31:17;6.18;;;5.20;;
59972;SDS011;55298;-36.624;-64.282;2022-08-26T08:33:46;8.00;;;5.38;;
59972;SDS011;55298;-36.624;-64.282;2022-08-26T08:36:14;8.93;;;5.40;;
59972;SDS011;55298;-36.624;-64.282;2022-08-26T08:38:42;12.95;;;4.82;;
59972;SDS011;55298;-36.624;-64.282;2022-08-26T08:41:16;9.82;;;6.13;;
59972;SDS011;55298;-36.624;-64.282;2022-08-26T08:43:54;9.68;;;5.13;;
59972;SDS011;55298;-36.624;-64.282;2022-08-26T08:46:25;5.82;;;4.85;;
59972;SDS011;55298;-36.624;-64.282;2022-08-26T08:48:54;13.35;;;5.35;;
59972;SDS011;55298;-36.624;-64.282;2022-08-26T08:51:36;7.03;;;5.30;;
59972;SDS011;55298;-36.624;-64.282;2022-08-26T08:54:16;5.32;;;4.07;;
59972;SDS011;55298;-36.624;-64.282;2022-08-26T08:56:49;6.28;;;4.20;;
59972;SDS011;55298;-36.624;-64.282;2022-08-26T08:59:29;5.30;;;4.80;;
59972;SDS011;55298;-36.624;-64.282;2022-08-26T09:02:09;9.48;;;4.90;;
59972;SDS011;55298;-36.624;-64.282;2022-08-26T09:04:57;9.27;;;4.85;;
59972;SDS011;55298;-36.624;-64.282;2022-08-26T09:07:42;11.95;;;5.35;;
59972;SDS011;55298;-36.624;-64.282;2022-08-26T09:10:21;10.90;;;5.18;;
59972;SDS011;55298;-36.624;-64.282;2022-08-26T09:13:14;7.72;;;4.90;;
59972;SDS011;55298;-36.624;-64.282;2022-08-26T09:21:43;13.85;;;5.45;;
59972;SDS011;55298;-36.624;-64.282;2022-08-26T09:24:13;9.25;;;5.53;;
59972;SDS011;55298;-36.624;-64.282;2022-08-26T09:26:43;13.30;;;5.57;;
59972;SDS011;55298;-36.624;-64.282;2022-08-26T09:29:18;11.95;;;5.63;;
59972;SDS011;55298;-36.624;-64.282;2022-08-26T09:34:55;16.88;;;6.32;;
59972;SDS011;55298;-36.624;-64.282;2022-08-26T09:37:32;10.70;;;6.20;;
59972;SDS011;55298;-36.624;-64.282;2022-08-26T09:42:45;10.07;;;5.22;;
59972;SDS011;55298;-36.624;-64.282;2022-08-26T09:45:14;5.85;;;5.28;;
59972;SDS011;55298;-36.624;-64.282;2022-08-26T09:47:53;10.23;;;5.03;;
59972;SDS011;55298;-36.624;-64.282;2022-08-26T09:50:25;6.03;;;4.25;;
59972;SDS011;55298;-36.624;-64.282;2022-08-26T09:53:08;11.32;;;5.32;;
59972;SDS011;55298;-36.624;-64.282;2022-08-26T09:55:47;12.27;;;6.60;;
59972;SDS011;55298;-36.624;-64.282;2022-08-26T10:01:01;8.88;;;5.80;;
59972;SDS011;55298;-36.624;-64.282;2022-08-26T10:03:33;14.85;;;5.85;;
59972;SDS011;55298;-36.624;-64.282;2022-08-26T10:06:12;8.98;;;5.32;;
59972;SDS011;55298;-36.624;-64.282;2022-08-26T10:08:57;9.25;;;4.53;;
59972;SDS011;55298;-36.624;-64.282;2022-08-26T10:11:38;17.58;;;6.20;;
59972;SDS011;55298;-36.624;-64.282;2022-08-26T10:14:25;8.40;;;5.10;;
59972;SDS011;55298;-36.624;-64.282;2022-08-26T10:17:03;9.73;;;6.05;;
59972;SDS011;55298;-36.624;-64.282;2022-08-26T10:19:53;15.70;;;7.13;;
59972;SDS011;55298;-36.624;-64.282;2022-08-26T10:22:39;15.57;;;7.18;;
59972;SDS011;55298;-36.624;-64.282;2022-08-26T10:25:47;20.08;;;5.88;;
59972;SDS011;55298;-36.624;-64.282;2022-08-26T10:28:32;10.00;;;5.40;;
59972;SDS011;55298;-36.624;-64.282;2022-08-26T10:31:26;11.73;;;6.15;;
59972;SDS011;55298;-36.624;-64.282;2022-08-26T10:34:08;12.07;;;6.03;;
59972;SDS011;55298;-36.624;-64.282;2022-08-26T10:36:54;8.30;;;5.75;;
59972;SDS011;55298;-36.624;-64.282;2022-08-26T10:42:23;15.35;;;8.95;;
59972;SDS011;55298;-36.624;-64.282;2022-08-26T10:45:05;5.38;;;4.95;;
59972;SDS011;55298;-36.624;-64.282;2022-08-26T10:50:37;5.57;;;4.50;;
59972;SDS011;55298;-36.624;-64.282;2022-08-26T10:53:32;8.32;;;4.40;;
59972;SDS011;55298;-36.624;-64.282;2022-08-26T10:59:42;14.13;;;5.88;;
59972;SDS011;55298;-36.624;-64.282;2022-08-26T11:02:13;18.63;;;10.13;;
59972;SDS011;55298;-36.624;-64.282;2022-08-26T11:04:54;16.67;;;10.18;;
59972;SDS011;55298;-36.624;-64.282;2022-08-26T11:07:36;15.55;;;7.53;;
59972;SDS011;55298;-36.624;-64.282;2022-08-26T11:13:18;8.45;;;5.45;;
59972;SDS011;55298;-36.624;-64.282;2022-08-26T11:16:11;17.85;;;8.52;;
59972;SDS011;55298;-36.624;-64.282;2022-08-26T11:19:07;12.85;;;8.35;;
59972;SDS011;55298;-36.624;-64.282;2022-08-26T11:21:41;19.30;;;8.77;;
59972;SDS011;55298;-36.624;-64.282;2022-08-26T11:24:41;22.38;;;8.88;;
59972;SDS011;55298;-36.624;-64.282;2022-08-26T11:30:34;12.15;;;5.35;;
59972;SDS011;55298;-36.624;-64.282;2022-08-26T11:33:05;13.55;;;6.15;;
59972;SDS011;55298;-36.624;-64.282;2022-08-26T11:35:44;14.43;;;7.10;;
59972;SDS011;55298;-36.624;-64.282;2022-08-26T11:38:29;9.65;;;5.70;;
59972;SDS011;55298;-36.624;-64.282;2022-08-26T11:41:08;7.78;;;6.10;;
59972;SDS011;55298;-36.624;-64.282;2022-08-26T11:43:44;7.07;;;5.68;;
59972;SDS011;55298;-36.624;-64.282;2022-08-26T11:46:25;16.75;;;6.10;;
59972;SDS011;55298;-36.624;-64.282;2022-08-26T11:49:00;9.35;;;5.38;;
59972;SDS011;55298;-36.624;-64.282;2022-08-26T11:51:33;8.88;;;4.88;;
59972;SDS011;55298;-36.624;-64.282;2022-08-26T11:56:44;7.50;;;6.75;;
59972;SDS011;55298;-36.624;-64.282;2022-08-26T11:59:22;11.25;;;5.05;;
59972;SDS011;55298;-36.624;-64.282;2022-08-26T12:01:58;7.15;;;3.47;;
59972;SDS011;55298;-36.624;-64.282;2022-08-26T12:04:27;5.43;;;3.70;;
59972;SDS011;55298;-36.624;-64.282;2022-08-26T12:06:59;3.78;;;3.47;;
59972;SDS011;55298;-36.624;-64.282;2022-08-26T12:09:34;5.78;;;3.75;;
59972;SDS011;55298;-36.624;-64.282;2022-08-26T12:12:15;13.38;;;4.63;;
59972;SDS011;55298;-36.624;-64.282;2022-08-26T12:17:29;10.50;;;4.25;;
59972;SDS011;55298;-36.624;-64.282;2022-08-26T12:19:58;5.57;;;5.13;;
59972;SDS011;55298;-36.624;-64.282;2022-08-26T12:22:28;10.45;;;4.30;;
59972;SDS011;55298;-36.624;-64.282;2022-08-26T12:25:03;5.15;;;4.28;;
59972;SDS011;55298;-36.624;-64.282;2022-08-26T12:27:37;12.02;;;5.00;;
59972;SDS011;55298;-36.624;-64.282;2022-08-26T12:30:11;4.70;;;4.32;;
59972;SDS011;55298;-36.624;-64.282;2022-08-26T12:32:47;10.07;;;4.28;;
59972;SDS011;55298;-36.624;-64.282;2022-08-26T12:35:22;5.93;;;4.10;;
59972;SDS011;55298;-36.624;-64.282;2022-08-26T12:37:54;4.13;;;3.72;;
59972;SDS011;55298;-36.624;-64.282;2022-08-26T12:40:30;5.65;;;4.25;;
59972;SDS011;55298;-36.624;-64.282;2022-08-26T12:43:08;5.45;;;3.80;;
59972;SDS011;55298;-36.624;-64.282;2022-08-26T12:45:53;4.20;;;3.22;;
59972;SDS011;55298;-36.624;-64.282;2022-08-26T12:48:29;6.53;;;3.80;;
59972;SDS011;55298;-36.624;-64.282;2022-08-26T12:51:00;4.40;;;3.92;;
59972;SDS011;55298;-36.624;-64.282;2022-08-26T12:53:30;6.32;;;4.25;;
59972;SDS011;55298;-36.624;-64.282;2022-08-26T12:56:01;9.43;;;4.15;;
59972;SDS011;55298;-36.624;-64.282;2022-08-26T12:58:42;24.42;;;15.20;;
59972;SDS011;55298;-36.624;-64.282;2022-08-26T13:01:33;10.80;;;4.80;;
59972;SDS011;55298;-36.624;-64.282;2022-08-26T13:04:34;5.63;;;4.13;;
59972;SDS011;55298;-36.624;-64.282;2022-08-26T13:07:20;5.47;;;3.85;;
59972;SDS011;55298;-36.624;-64.282;2022-08-26T13:09:54;5.32;;;3.92;;
59972;SDS011;55298;-36.624;-64.282;2022-08-26T13:12:27;20.38;;;10.13;;
59972;SDS011;55298;-36.624;-64.282;2022-08-26T13:14:58;15.00;;;7.13;;
59972;SDS011;55298;-36.624;-64.282;2022-08-26T13:17:28;11.40;;;5.88;;
59972;SDS011;55298;-36.624;-64.282;2022-08-26T13:22:38;10.05;;;6.68;;
59972;SDS011;55298;-36.624;-64.282;2022-08-26T13:25:07;9.57;;;5.25;;
59972;SDS011;55298;-36.624;-64.282;2022-08-26T13:27:35;7.88;;;5.95;;
59972;SDS011;55298;-36.624;-64.282;2022-08-26T13:30:03;9.82;;;6.65;;
59972;SDS011;55298;-36.624;-64.282;2022-08-26T13:32:33;13.02;;;7.18;;
59972;SDS011;55298;-36.624;-64.282;2022-08-26T13:35:02;13.75;;;6.90;;
59972;SDS011;55298;-36.624;-64.282;2022-08-26T13:37:35;6.13;;;4.28;;
59972;SDS011;55298;-36.624;-64.282;2022-08-26T13:40:10;10.05;;;5.25;;
59972;SDS011;55298;-36.624;-64.282;2022-08-26T13:42:58;5.20;;;4.78;;
59972;SDS011;55298;-36.624;-64.282;2022-08-26T13:45:26;11.68;;;5.68;;
59972;SDS011;55298;-36.624;-64.282;2022-08-26T13:47:56;6.63;;;5.25;;
59972;SDS011;55298;-36.624;-64.282;2022-08-26T13:50:28;5.45;;;4.18;;
59972;SDS011;55298;-36.624;-64.282;2022-08-26T13:53:15;7.53;;;4.30;;
59972;SDS011;55298;-36.624;-64.282;2022-08-26T13:58:38;14.50;;;6.40;;
59972;SDS011;55298;-36.624;-64.282;2022-08-26T14:01:08;9.70;;;5.70;;
59972;SDS011;55298;-36.624;-64.282;2022-08-26T14:03:36;10.10;;;5.00;;
59972;SDS011;55298;-36.624;-64.282;2022-08-26T14:06:06;8.10;;;6.80;;
59972;SDS011;55298;-36.624;-64.282;2022-08-26T14:08:35;6.32;;;4.63;;
59972;SDS011;55298;-36.624;-64.282;2022-08-26T14:11:06;7.60;;;4.07;;
59972;SDS011;55298;-36.624;-64.282;2022-08-26T14:13:34;6.05;;;3.67;;
59972;SDS011;55298;-36.624;-64.282;2022-08-26T14:16:05;9.57;;;3.90;;
59972;SDS011;55298;-36.624;-64.282;2022-08-26T14:18:37;7.72;;;4.47;;
59972;SDS011;55298;-36.624;-64.282;2022-08-26T14:21:10;105.72;;;70.55;;
59972;SDS011;55298;-36.624;-64.282;2022-08-26T14:23:40;5.80;;;3.40;;
59972;SDS011;55298;-36.624;-64.282;2022-08-26T14:26:08;3.80;;;3.50;;
59972;SDS011;55298;-36.624;-64.282;2022-08-26T14:28:41;4.63;;;3.25;;
59972;SDS011;55298;-36.624;-64.282;2022-08-26T14:32:00;3.45;;;3.15;;
59972;SDS011;55298;-36.624;-64.282;2022-08-26T14:34:39;7.43;;;3.67;;
59972;SDS011;55298;-36.624;-64.282;2022-08-26T14:37:13;6.55;;;4.25;;
59972;SDS011;55298;-36.624;-64.282;2022-08-26T14:39:45;6.65;;;6.00;;
59972;SDS011;55298;-36.624;-64.282;2022-08-26T14:42:45;6.10;;;4.03;;
59972;SDS011;55298;-36.624;-64.282;2022-08-26T14:45:12;3.63;;;3.38;;
59972;SDS011;55298;-36.624;-64.282;2022-08-26T14:47:43;5.78;;;3.50;;
59972;SDS011;55298;-36.624;-64.282;2022-08-26T14:50:15;7.47;;;4.60;;
59972;SDS011;55298;-36.624;-64.282;2022-08-26T14:52:49;5.32;;;3.55;;
59972;SDS011;55298;-36.624;-64.282;2022-08-26T14:55:31;9.68;;;3.65;;
59972;SDS011;55298;-36.624;-64.282;2022-08-26T14:58:22;3.72;;;3.33;;
59972;SDS011;55298;-36.624;-64.282;2022-08-26T15:00:50;6.53;;;3.83;;
59972;SDS011;55298;-36.624;-64.282;2022-08-26T15:03:18;8.60;;;3.10;;
59972;SDS011;55298;-36.624;-64.282;2022-08-26T15:05:53;6.07;;;3.75;;
59972;SDS011;55298;-36.624;-64.282;2022-08-26T15:08:21;4.57;;;3.47;;
59972;SDS011;55298;-36.624;-64.282;2022-08-26T15:10:50;3.13;;;2.92;;
59972;SDS011;55298;-36.624;-64.282;2022-08-26T15:13:20;2.92;;;2.65;;
59972;SDS011;55298;-36.624;-64.282;2022-08-26T15:15:52;2.75;;;2.35;;